Ringgold, Georgia
Current Conditions -  °F | °C
As of 1:53 PM on Tuesday 21 Oct 2014 (Local Time) from KCHA Reporting Station
Scattered Clouds Scattered Clouds  
Wind Chill: 71°   Ceiling: Unl
Heat Index: 71°   Visibility: 10mi
Dew Point: 47°   Wind: 10mph
Humidity: 42%   Direction: 350°N
Pressure: 30.02"   Gusts: NA
Location:  34.92°N, 85.11°W
Report Text: KCHA 211753Z 35009KT 10SM SCT050 22/08 A3002 RMK AO2 SLP160 T02170083 10222 20089 58013
Loading
Personal Weather Stations






























Interactive Weather Map
Tropical Storm Tracking
New forecast layout! Learn more

10-Day Weather Forecast

Advertisements
Track Severe Weather on mobile